METAR Data
IDs: Format: Raw Decoded Include TAF

Data at: 0847 UTC 19 Apr 2019

METAR for:VTUK (Khon Kaen Arpt, --, TH)
Text:VTUK 190800Z VRB06KT 9999 SCT030 40/23 Q1003 NOSIG
Temperature: 40.0°C (104°F)
Dewpoint: 23.0°C ( 73°F) [RH = 38%]
Pressure (altimeter):29.62 inches Hg (1003.0 mb)
Winds:variable direction winds at 7 MPH (6 knots; 3.1 m/s)
Visibility:6 or more sm (10+ km)
Ceiling:at least 12,000 feet AGL
Clouds: scattered clouds at 3000 feet AGL
Text:VTUK 190700Z 20007KT 100V270 9999 SCT030 40/23 Q1004 NOSIG
Temperature: 40.0°C (104°F)
Dewpoint: 23.0°C ( 73°F) [RH = 38%]
Pressure (altimeter):29.65 inches Hg (1004.0 mb)
Winds:from the SSW (200 degrees) at 8 MPH (7 knots; 3.6 m/s)
Visibility:6 or more sm (10+ km)
Ceiling:at least 12,000 feet AGL
Clouds: scattered clouds at 3000 feet AGL
Text:VTUK 190600Z 22008KT 120V280 9999 FEW035 39/24 Q1006 NOSIG
Temperature: 39.0°C (102°F)
Dewpoint: 24.0°C ( 75°F) [RH = 43%]
Pressure (altimeter):29.70 inches Hg (1006.0 mb)
Winds:from the SW (220 degrees) at 9 MPH (8 knots; 4.1 m/s)
Visibility:6 or more sm (10+ km)
Ceiling:at least 12,000 feet AGL
Clouds: few clouds at 3500 feet AGL

METAR for:VTUD (Udon Thani Arpt, --, TH)
Text:VTUD 190800Z 24006KT 150V290 9999 FEW018TCU 41/21 Q1002 NOSIG
Temperature: 41.0°C (106°F)
Dewpoint: 21.0°C ( 70°F) [RH = 32%]
Pressure (altimeter):29.59 inches Hg (1002.0 mb)
Winds:from the WSW (240 degrees) at 7 MPH (6 knots; 3.1 m/s)
Visibility:6 or more sm (10+ km)
Ceiling:at least 12,000 feet AGL
Clouds: few clouds at 1800 feet AGL
Text:VTUD 190700Z 29007KT 230V340 9999 FEW030 40/21 Q1004 NOSIG
Temperature: 40.0°C (104°F)
Dewpoint: 21.0°C ( 70°F) [RH = 34%]
Pressure (altimeter):29.65 inches Hg (1004.0 mb)
Winds:from the WNW (290 degrees) at 8 MPH (7 knots; 3.6 m/s)
Visibility:6 or more sm (10+ km)
Ceiling:at least 12,000 feet AGL
Clouds: few clouds at 3000 feet AGL
Text:VTUD 190600Z VRB06KT 9999 FEW030 38/23 Q1005 NOSIG
Temperature: 38.0°C (100°F)
Dewpoint: 23.0°C ( 73°F) [RH = 42%]
Pressure (altimeter):29.68 inches Hg (1005.0 mb)
Winds:variable direction winds at 7 MPH (6 knots; 3.1 m/s)
Visibility:6 or more sm (10+ km)
Ceiling:at least 12,000 feet AGL
Clouds: few clouds at 3000 feet AGL

METAR for:VTUL (Loei Arpt, --, TH)
Text:VTUL 190800Z 20005KT 180V240 9999 SCT040 SCT080 37/22 Q1003 NOSIG
Temperature: 37.0°C ( 99°F)
Dewpoint: 22.0°C ( 72°F) [RH = 42%]
Pressure (altimeter):29.62 inches Hg (1003.0 mb)
Winds:from the SSW (200 degrees) at 6 MPH (5 knots; 2.6 m/s)
Visibility:6 or more sm (10+ km)
Ceiling:at least 12,000 feet AGL
Clouds: scattered clouds at 4000 feet AGL, scattered clouds at 8000 feet AGL
Text:VTUL 190700Z VRB05KT 9999 SCT035 SCT090 39/21 Q1004 NOSIG
Temperature: 39.0°C (102°F)
Dewpoint: 21.0°C ( 70°F) [RH = 36%]
Pressure (altimeter):29.65 inches Hg (1004.0 mb)
Winds:variable direction winds at 6 MPH (5 knots; 2.6 m/s)
Visibility:6 or more sm (10+ km)
Ceiling:at least 12,000 feet AGL
Clouds: scattered clouds at 3500 feet AGL, scattered clouds at 9000 feet AGL
Text:VTUL 190600Z VRB05KT 9999 SCT035 SCT070 38/22 Q1005 NOSIG
Temperature: 38.0°C (100°F)
Dewpoint: 22.0°C ( 72°F) [RH = 40%]
Pressure (altimeter):29.68 inches Hg (1005.0 mb)
Winds:variable direction winds at 6 MPH (5 knots; 2.6 m/s)
Visibility:6 or more sm (10+ km)
Ceiling:at least 12,000 feet AGL
Clouds: scattered clouds at 3500 feet AGL, scattered clouds at 7000 feet AGL

METAR for:VTUI (Sakon Nakhon Arpt, --, TH)
Text:VTUI 190800Z 24009KT 9000 FEW035 39/22 Q1003 NOSIG
Temperature: 39.0°C (102°F)
Dewpoint: 22.0°C ( 72°F) [RH = 38%]
Pressure (altimeter):29.62 inches Hg (1003.0 mb)
Winds:from the WSW (240 degrees) at 10 MPH (9 knots; 4.6 m/s)
Visibility: 6 sm ( 9 km)
Ceiling:at least 12,000 feet AGL
Clouds: few clouds at 3500 feet AGL
Text:VTUI 190700Z 24008KT 210V270 9000 FEW035 38/22 Q1004 NOSIG
Temperature: 38.0°C (100°F)
Dewpoint: 22.0°C ( 72°F) [RH = 40%]
Pressure (altimeter):29.65 inches Hg (1004.0 mb)
Winds:from the WSW (240 degrees) at 9 MPH (8 knots; 4.1 m/s)
Visibility: 6 sm ( 9 km)
Ceiling:at least 12,000 feet AGL
Clouds: few clouds at 3500 feet AGL
Text:VTUI 190600Z 23009KT 190V270 8000 FEW035 38/23 Q1005 NOSIG
Temperature: 38.0°C (100°F)
Dewpoint: 23.0°C ( 73°F) [RH = 42%]
Pressure (altimeter):29.68 inches Hg (1005.0 mb)
Winds:from the SW (230 degrees) at 10 MPH (9 knots; 4.6 m/s)
Visibility: 5 sm ( 8 km)
Ceiling:at least 12,000 feet AGL
Clouds: few clouds at 3500 feet AGL

METAR for:VTUW (Nakhon Phanom Arpt, --, TH)
Text:VTUW 190800Z 21007KT 160V260 9999 FEW030TCU BKN060 37/23 Q1003 NOSIG
Temperature: 37.0°C ( 99°F)
Dewpoint: 23.0°C ( 73°F) [RH = 45%]
Pressure (altimeter):29.62 inches Hg (1003.0 mb)
Winds:from the SSW (210 degrees) at 8 MPH (7 knots; 3.6 m/s)
Visibility:6 or more sm (10+ km)
Ceiling:6000 feet AGL
Clouds: few clouds at 3000 feet AGL, broken clouds at 6000 feet AGL
Text:VTUW 190700Z 22007KT 170V270 9999 BKN045 37/24 Q1004 NOSIG
Temperature: 37.0°C ( 99°F)
Dewpoint: 24.0°C ( 75°F) [RH = 48%]
Pressure (altimeter):29.65 inches Hg (1004.0 mb)
Winds:from the SW (220 degrees) at 8 MPH (7 knots; 3.6 m/s)
Visibility:6 or more sm (10+ km)
Ceiling:4500 feet AGL
Clouds: broken clouds at 4500 feet AGL
Text:VTUW 190600Z 20007KT 150V300 9999 BKN045 37/23 Q1005 NOSIG
Temperature: 37.0°C ( 99°F)
Dewpoint: 23.0°C ( 73°F) [RH = 45%]
Pressure (altimeter):29.68 inches Hg (1005.0 mb)
Winds:from the SSW (200 degrees) at 8 MPH (7 knots; 3.6 m/s)
Visibility:6 or more sm (10+ km)
Ceiling:4500 feet AGL
Clouds: broken clouds at 4500 feet AGL

METAR for:VTBS (Bangkok/Suvarnabhumi, --, TH)
Text:VTBS 190830Z 19014KT 9999 FEW020 35/23 Q1004 NOSIG
Temperature: 35.0°C ( 95°F)
Dewpoint: 23.0°C ( 73°F) [RH = 50%]
Pressure (altimeter):29.65 inches Hg (1004.0 mb)
Winds:from the S (190 degrees) at 16 MPH (14 knots; 7.2 m/s)
Visibility:6 or more sm (10+ km)
Ceiling:at least 12,000 feet AGL
Clouds: few clouds at 2000 feet AGL
Text:VTBS 190800Z 19012KT 160V220 9999 FEW020 36/23 Q1005 NOSIG
Temperature: 36.0°C ( 97°F)
Dewpoint: 23.0°C ( 73°F) [RH = 47%]
Pressure (altimeter):29.68 inches Hg (1005.0 mb)
Winds:from the S (190 degrees) at 14 MPH (12 knots; 6.2 m/s)
Visibility:6 or more sm (10+ km)
Ceiling:at least 12,000 feet AGL
Clouds: few clouds at 2000 feet AGL
Text:VTBS 190730Z 19011KT 160V220 9999 FEW020 36/24 Q1005 NOSIG
Temperature: 36.0°C ( 97°F)
Dewpoint: 24.0°C ( 75°F) [RH = 50%]
Pressure (altimeter):29.68 inches Hg (1005.0 mb)
Winds:from the S (190 degrees) at 13 MPH (11 knots; 5.7 m/s)
Visibility:6 or more sm (10+ km)
Ceiling:at least 12,000 feet AGL
Clouds: few clouds at 2000 feet AGL
Text:VTBS 190700Z 19013KT 160V230 9999 FEW020 36/24 Q1006 NOSIG
Temperature: 36.0°C ( 97°F)
Dewpoint: 24.0°C ( 75°F) [RH = 50%]
Pressure (altimeter):29.70 inches Hg (1006.0 mb)
Winds:from the S (190 degrees) at 15 MPH (13 knots; 6.7 m/s)
Visibility:6 or more sm (10+ km)
Ceiling:at least 12,000 feet AGL
Clouds: few clouds at 2000 feet AGL
Text:VTBS 190630Z 20013KT 9999 FEW020 36/24 Q1006 NOSIG
Temperature: 36.0°C ( 97°F)
Dewpoint: 24.0°C ( 75°F) [RH = 50%]
Pressure (altimeter):29.70 inches Hg (1006.0 mb)
Winds:from the SSW (200 degrees) at 15 MPH (13 knots; 6.7 m/s)
Visibility:6 or more sm (10+ km)
Ceiling:at least 12,000 feet AGL
Clouds: few clouds at 2000 feet AGL
Text:VTBS 190600Z 20012KT 9999 FEW020 35/24 Q1007 NOSIG
Temperature: 35.0°C ( 95°F)
Dewpoint: 24.0°C ( 75°F) [RH = 53%]
Pressure (altimeter):29.73 inches Hg (1007.0 mb)
Winds:from the SSW (200 degrees) at 14 MPH (12 knots; 6.2 m/s)
Visibility:6 or more sm (10+ km)
Ceiling:at least 12,000 feet AGL
Clouds: few clouds at 2000 feet AGL

METAR for:VTBD (Bangkok Intl, --, TH)
Text:VTBD 190830Z 20008KT 150V240 9999 FEW020 37/24 Q1004 NOSIG
Temperature: 37.0°C ( 99°F)
Dewpoint: 24.0°C ( 75°F) [RH = 48%]
Pressure (altimeter):29.65 inches Hg (1004.0 mb)
Winds:from the SSW (200 degrees) at 9 MPH (8 knots; 4.1 m/s)
Visibility:6 or more sm (10+ km)
Ceiling:at least 12,000 feet AGL
Clouds: few clouds at 2000 feet AGL
Text:VTBD 190800Z 18008KT 140V230 9999 FEW020 38/24 Q1005 NOSIG
Temperature: 38.0°C (100°F)
Dewpoint: 24.0°C ( 75°F) [RH = 45%]
Pressure (altimeter):29.68 inches Hg (1005.0 mb)
Winds:from the S (180 degrees) at 9 MPH (8 knots; 4.1 m/s)
Visibility:6 or more sm (10+ km)
Ceiling:at least 12,000 feet AGL
Clouds: few clouds at 2000 feet AGL
Text:VTBD 190730Z 20008KT 150V230 9999 FEW020 SCT040 37/25 Q1005 NOSIG
Temperature: 37.0°C ( 99°F)
Dewpoint: 25.0°C ( 77°F) [RH = 50%]
Pressure (altimeter):29.68 inches Hg (1005.0 mb)
Winds:from the SSW (200 degrees) at 9 MPH (8 knots; 4.1 m/s)
Visibility:6 or more sm (10+ km)
Ceiling:at least 12,000 feet AGL
Clouds: few clouds at 2000 feet AGL, scattered clouds at 4000 feet AGL
Text:VTBD 190700Z 19007KT 120V230 9999 FEW020 SCT040 37/24 Q1006 NOSIG
Temperature: 37.0°C ( 99°F)
Dewpoint: 24.0°C ( 75°F) [RH = 48%]
Pressure (altimeter):29.70 inches Hg (1006.0 mb)
Winds:from the S (190 degrees) at 8 MPH (7 knots; 3.6 m/s)
Visibility:6 or more sm (10+ km)
Ceiling:at least 12,000 feet AGL
Clouds: few clouds at 2000 feet AGL, scattered clouds at 4000 feet AGL
Text:VTBD 190630Z 18007KT 120V220 9999 FEW020 SCT040 37/25 Q1006 NOSIG
Temperature: 37.0°C ( 99°F)
Dewpoint: 25.0°C ( 77°F) [RH = 50%]
Pressure (altimeter):29.70 inches Hg (1006.0 mb)
Winds:from the S (180 degrees) at 8 MPH (7 knots; 3.6 m/s)
Visibility:6 or more sm (10+ km)
Ceiling:at least 12,000 feet AGL
Clouds: few clouds at 2000 feet AGL, scattered clouds at 4000 feet AGL
Text:VTBD 190600Z 18009KT 150V220 9999 FEW020 SCT040 37/25 Q1007 NOSIG
Temperature: 37.0°C ( 99°F)
Dewpoint: 25.0°C ( 77°F) [RH = 50%]
Pressure (altimeter):29.73 inches Hg (1007.0 mb)
Winds:from the S (180 degrees) at 10 MPH (9 knots; 4.6 m/s)
Visibility:6 or more sm (10+ km)
Ceiling:at least 12,000 feet AGL
Clouds: few clouds at 2000 feet AGL, scattered clouds at 4000 feet AGL